createdAt,value
2019-03-15T00:02:13.608Z,97118.06
2019-03-15T00:04:44.000Z,97124.45
2019-03-15T00:07:14.326Z,97131.87
2019-03-15T00:09:45.588Z,97133.08
2019-03-15T00:12:16.094Z,97140.72
2019-03-15T00:14:46.635Z,97141.30
2019-03-15T00:17:18.021Z,97142.69
2019-03-15T00:19:49.344Z,97145.81
2019-03-15T00:22:19.876Z,97149.00
2019-03-15T00:24:50.245Z,97150.06
2019-03-15T00:27:20.663Z,97156.58
2019-03-15T00:29:50.899Z,97158.91
2019-03-15T00:32:21.339Z,97156.27
2019-03-15T00:34:52.699Z,97169.14
2019-03-15T00:37:22.846Z,97166.81
2019-03-15T00:39:54.069Z,97165.53
2019-03-15T00:42:24.337Z,97161.70
2019-03-15T00:44:54.619Z,97167.07
2019-03-15T00:47:24.785Z,97169.39
2019-03-15T00:49:55.168Z,97161.42
2019-03-15T00:52:25.757Z,97161.33
2019-03-15T00:54:56.029Z,97162.41
2019-03-15T00:57:26.291Z,97163.15
2019-03-15T00:59:56.564Z,97164.98
2019-03-15T01:02:26.893Z,97161.83
2019-03-15T01:04:57.013Z,97176.89
2019-03-15T01:07:27.112Z,97172.98
2019-03-15T01:09:57.412Z,97172.27
2019-03-15T01:12:27.657Z,97171.33
2019-03-15T01:14:57.958Z,97165.33
2019-03-15T01:17:28.235Z,97168.27
2019-03-15T01:19:58.494Z,97166.12
2019-03-15T01:22:28.750Z,97167.26
2019-03-15T01:24:58.848Z,97165.94
2019-03-15T01:27:29.043Z,97167.22
2019-03-15T01:29:59.250Z,97171.92
2019-03-15T01:32:29.585Z,97172.07
2019-03-15T01:34:59.845Z,97169.61
2019-03-15T01:37:29.949Z,97167.26
2019-03-15T01:40:00.772Z,97170.34
2019-03-15T01:42:31.371Z,97177.72
2019-03-15T01:45:01.535Z,97183.78
2019-03-15T01:47:31.713Z,97191.38
2019-03-15T01:50:01.806Z,97193.58
2019-03-15T01:52:31.969Z,97186.52
2019-03-15T01:55:02.061Z,97193.95
2019-03-15T01:57:32.171Z,97190.02
2019-03-15T02:00:02.297Z,97201.59
2019-03-15T02:02:32.519Z,97191.86
2019-03-15T02:05:02.622Z,97193.92
2019-03-15T02:07:32.781Z,97194.91
2019-03-15T02:10:03.074Z,97193.66
2019-03-15T02:12:33.290Z,97197.19
2019-03-15T02:15:03.590Z,97195.64
2019-03-15T02:17:33.837Z,97194.50
2019-03-15T02:20:04.331Z,97184.03
2019-03-15T02:22:34.605Z,97176.86
2019-03-15T02:25:04.801Z,97188.00
2019-03-15T02:27:35.148Z,97188.06
2019-03-15T02:30:05.924Z,97185.06
2019-03-15T02:32:36.313Z,97176.90
2019-03-15T02:35:06.761Z,97183.52
2019-03-15T02:37:36.919Z,97185.55
2019-03-15T02:40:07.298Z,97174.58
2019-03-15T02:42:37.439Z,97176.75
2019-03-15T02:45:07.798Z,97174.49
2019-03-15T02:47:39.985Z,97168.20
2019-03-15T02:50:12.346Z,97160.78
2019-03-15T02:52:42.786Z,97161.91
2019-03-15T02:55:13.147Z,97166.46
2019-03-15T02:57:43.505Z,97159.27
2019-03-15T03:00:14.336Z,97161.72
2019-03-15T03:02:44.596Z,97161.23
2019-03-15T03:05:14.973Z,97168.63
2019-03-15T03:07:45.257Z,97179.49
2019-03-15T03:10:15.668Z,97184.13
2019-03-15T03:12:45.898Z,97186.02
2019-03-15T03:15:16.255Z,97192.16
2019-03-15T03:17:46.524Z,97178.20
2019-03-15T03:20:17.062Z,97180.41
2019-03-15T03:22:47.287Z,97176.33
2019-03-15T03:25:17.708Z,97187.22
2019-03-15T03:27:48.035Z,97200.09
2019-03-15T03:30:18.424Z,97212.08
2019-03-15T03:32:48.716Z,97210.59
2019-03-15T03:35:18.914Z,97213.19
2019-03-15T03:37:49.232Z,97217.55
2019-03-15T03:40:20.500Z,97227.05
2019-03-15T03:42:51.428Z,97224.84
2019-03-15T03:45:23.379Z,97215.85
2019-03-15T03:47:54.019Z,97217.61
2019-03-15T03:50:24.461Z,97223.48
2019-03-15T03:52:54.938Z,97224.46
2019-03-15T03:55:25.621Z,97216.80
2019-03-15T03:57:56.146Z,97214.45
2019-03-15T04:00:26.537Z,97204.53
2019-03-15T04:02:56.928Z,97193.30
2019-03-15T04:05:27.330Z,97194.28
2019-03-15T04:07:57.905Z,97180.14
2019-03-15T04:10:41.420Z,97176.01
2019-03-15T04:13:11.719Z,97179.84
2019-03-15T04:15:42.221Z,97183.33
2019-03-15T04:18:14.623Z,97186.59
2019-03-15T04:20:52.017Z,97178.77
2019-03-15T04:23:22.404Z,97185.80
2019-03-15T04:26:01.180Z,97177.84
2019-03-15T04:28:31.526Z,97186.34
2019-03-15T04:31:01.940Z,97192.86
2019-03-15T04:33:32.218Z,97190.70
2019-03-15T04:36:02.604Z,97189.37
2019-03-15T04:38:35.037Z,97190.75
2019-03-15T04:41:05.387Z,97199.42
2019-03-15T04:43:35.763Z,97193.63
2019-03-15T04:46:06.284Z,97204.37
2019-03-15T04:48:36.590Z,97209.47
2019-03-15T04:51:06.944Z,97212.97
2019-03-15T04:53:37.150Z,97206.41
2019-03-15T04:56:07.800Z,97203.89
2019-03-15T04:58:38.166Z,97205.63
2019-03-15T05:01:08.474Z,97198.73
2019-03-15T05:03:38.727Z,97203.50
2019-03-15T05:06:08.959Z,97207.51
2019-03-15T05:08:39.368Z,97205.20
2019-03-15T05:11:09.569Z,97195.97
2019-03-15T05:13:39.818Z,97196.02
2019-03-15T05:16:10.083Z,97198.66
2019-03-15T05:18:40.392Z,97203.77
2019-03-15T05:21:10.807Z,97196.58
2019-03-15T05:23:41.031Z,97194.70
2019-03-15T05:26:11.356Z,97195.20
2019-03-15T05:28:41.609Z,97190.27
2019-03-15T05:31:11.919Z,97191.58
2019-03-15T05:33:42.132Z,97191.58
2019-03-15T05:36:12.485Z,97189.56
2019-03-15T05:38:42.696Z,97188.11
2019-03-15T05:41:13.018Z,97190.48
2019-03-15T05:43:43.341Z,97190.64
2019-03-15T05:46:13.672Z,97194.20
2019-03-15T05:48:43.998Z,97196.58
2019-03-15T05:51:14.465Z,97197.09
2019-03-15T05:53:44.669Z,97185.72
2019-03-15T05:56:14.949Z,97194.38
2019-03-15T05:58:45.262Z,97187.67
2019-03-15T06:01:15.637Z,97187.55
2019-03-15T06:03:48.786Z,97191.52
2019-03-15T06:06:18.975Z,97186.97
2019-03-15T06:08:49.296Z,97183.45
2019-03-15T06:11:19.539Z,97187.89
2019-03-15T06:13:49.913Z,97186.78
2019-03-15T06:16:20.160Z,97187.38
2019-03-15T06:18:50.327Z,97187.08
2019-03-15T06:21:20.659Z,97193.13
2019-03-15T06:23:50.805Z,97191.85
2019-03-15T06:26:20.905Z,97197.27
2019-03-15T06:28:51.118Z,97203.37
2019-03-15T06:31:21.321Z,97201.33
2019-03-15T06:33:51.701Z,97202.72
2019-03-15T06:36:21.905Z,97210.42
2019-03-15T06:38:52.176Z,97215.48
2019-03-15T06:41:22.501Z,97212.97
2019-03-15T06:43:53.760Z,97212.09
2019-03-15T06:46:23.946Z,97214.52
2019-03-15T06:48:55.083Z,97211.83
2019-03-15T06:51:25.534Z,97218.95
2019-03-15T06:53:55.807Z,97211.58
2019-03-15T06:56:26.127Z,97210.08
2019-03-15T06:58:56.371Z,97211.18
2019-03-15T07:01:26.785Z,97211.11
2019-03-15T07:03:57.182Z,97209.28
2019-03-15T07:06:28.841Z,97207.11
2019-03-15T07:08:59.150Z,97208.55
2019-03-15T07:11:29.419Z,97213.92
2019-03-15T07:13:59.753Z,97216.30
2019-03-15T07:16:29.999Z,97214.17
2019-03-15T07:19:00.169Z,97212.05
2019-03-15T07:21:30.337Z,97215.20
2019-03-15T07:24:00.561Z,97205.72
2019-03-15T07:26:30.781Z,97211.59
2019-03-15T07:29:01.006Z,97203.31
2019-03-15T07:31:31.256Z,97204.64
2019-03-15T07:34:01.483Z,97205.15
2019-03-15T07:36:31.648Z,97202.50
2019-03-15T07:39:01.992Z,97197.30
2019-03-15T07:41:32.335Z,97191.64
2019-03-15T07:44:02.636Z,97181.52
2019-03-15T07:46:32.896Z,97178.44
2019-03-15T07:49:03.246Z,97174.92
2019-03-15T07:51:33.408Z,97163.95
2019-03-15T07:54:03.778Z,97157.70
2019-03-15T07:56:33.979Z,97157.11
2019-03-15T07:59:04.292Z,97154.95
2019-03-15T08:01:34.584Z,97159.55
2019-03-15T08:04:16.318Z,97159.33
2019-03-15T08:06:36.983Z,97155.70
2019-03-15T08:09:08.764Z,97152.72
2019-03-15T08:11:39.140Z,97149.38
2019-03-15T08:14:09.441Z,97140.94
2019-03-15T08:16:39.732Z,97139.72
2019-03-15T08:19:10.122Z,97137.59
2019-03-15T08:21:40.315Z,97130.34
2019-03-15T08:24:10.579Z,97135.66
2019-03-15T08:26:40.746Z,97138.72
2019-03-15T08:29:11.077Z,97130.09
2019-03-15T08:31:41.300Z,97127.73
2019-03-15T08:34:11.493Z,97131.47
2019-03-15T08:36:41.725Z,97120.50
2019-03-15T08:39:11.975Z,97115.13
2019-03-15T08:41:42.295Z,97102.68
2019-03-15T08:44:12.587Z,97099.39
2019-03-15T08:46:42.831Z,97092.06
2019-03-15T08:49:13.187Z,97090.58
2019-03-15T08:51:43.441Z,97081.41
2019-03-15T08:54:13.684Z,97081.53
2019-03-15T08:56:43.947Z,97072.88
2019-03-15T08:59:14.270Z,97070.69
2019-03-15T09:01:44.443Z,97068.88
2019-03-15T09:04:14.706Z,97073.17
2019-03-15T09:06:44.928Z,97061.86
2019-03-15T09:09:15.269Z,97066.83
2019-03-15T09:11:45.561Z,97064.18
2019-03-15T09:14:15.829Z,97067.09
2019-03-15T09:16:46.046Z,97049.80
2019-03-15T09:19:16.312Z,97068.49
2019-03-15T09:21:46.523Z,97067.22
2019-03-15T09:24:16.800Z,97055.89
2019-03-15T09:26:47.111Z,97062.44
2019-03-15T09:29:17.354Z,97070.80
2019-03-15T09:31:48.484Z,97052.30
2019-03-15T09:34:18.940Z,97064.17
2019-03-15T09:36:50.584Z,97052.61
2019-03-15T09:39:20.978Z,97055.98
2019-03-15T09:41:51.201Z,97058.50
2019-03-15T09:44:21.423Z,97060.95
2019-03-15T09:46:51.803Z,97056.92
2019-03-15T09:49:21.972Z,97057.94
2019-03-15T09:51:52.217Z,97054.55
2019-03-15T09:54:22.394Z,97046.33
2019-03-15T09:56:52.607Z,97045.97
2019-03-15T09:59:22.861Z,97054.63
2019-03-15T10:01:53.075Z,97058.31
2019-03-15T10:04:23.288Z,97044.84
2019-03-15T10:06:53.412Z,97043.55
2019-03-15T10:09:23.660Z,97064.89
2019-03-15T10:11:56.502Z,97058.13
2019-03-15T10:14:25.968Z,97053.78
2019-03-15T10:16:57.096Z,97055.22
2019-03-15T10:19:29.738Z,97049.39
2019-03-15T10:21:59.210Z,97055.78
2019-03-15T10:24:29.496Z,97059.53
2019-03-15T10:26:59.708Z,97053.61
2019-03-15T10:29:30.120Z,97058.39
2019-03-15T10:32:01.591Z,97057.64
2019-03-15T10:34:31.822Z,97057.17
2019-03-15T10:37:02.033Z,97062.87
2019-03-15T10:39:32.278Z,97066.17
2019-03-15T10:42:02.686Z,97066.47
2019-03-15T10:44:32.833Z,97063.85
2019-03-15T10:47:03.021Z,97067.31
2019-03-15T10:49:33.179Z,97075.08
2019-03-15T10:52:03.427Z,97070.61
2019-03-15T10:54:33.685Z,97069.03
2019-03-15T10:57:04.077Z,97056.55
2019-03-15T10:59:34.347Z,97066.36
2019-03-15T11:02:05.312Z,97066.66
2019-03-15T11:04:35.583Z,97071.75
2019-03-15T11:07:05.880Z,97073.64
2019-03-15T11:09:36.188Z,97074.19
2019-03-15T11:12:06.546Z,97078.45
2019-03-15T11:14:36.962Z,97077.41
2019-03-15T11:17:07.198Z,97072.84
2019-03-15T11:19:37.386Z,97066.48
2019-03-15T11:22:07.913Z,97083.77
2019-03-15T11:24:38.167Z,97081.41
2019-03-15T11:27:08.309Z,97086.47
2019-03-15T11:29:38.556Z,97086.20
2019-03-15T11:32:08.811Z,97089.15
2019-03-15T11:34:39.089Z,97083.27
2019-03-15T11:37:09.391Z,97089.14
2019-03-15T11:39:39.674Z,97092.62
2019-03-15T11:42:09.834Z,97090.47
2019-03-15T11:44:40.027Z,97089.67
2019-03-15T11:47:10.398Z,97085.96
2019-03-15T11:49:40.879Z,97085.95
2019-03-15T11:52:11.180Z,97092.08
2019-03-15T11:54:41.346Z,97086.22
2019-03-15T11:57:11.749Z,97107.53
2019-03-15T11:59:42.012Z,97093.69
2019-03-15T12:02:12.262Z,97094.47
2019-03-15T12:04:42.432Z,97092.61
2019-03-15T12:07:12.641Z,97097.14
2019-03-15T12:09:42.885Z,97092.33
2019-03-15T12:12:13.235Z,97079.02
2019-03-15T12:14:43.409Z,97098.45
2019-03-15T12:17:13.577Z,97085.92
2019-03-15T12:19:43.856Z,97105.94
2019-03-15T12:22:14.154Z,97108.88
2019-03-15T12:24:44.490Z,97095.27
2019-03-15T12:27:14.784Z,97096.85
2019-03-15T12:29:44.970Z,97095.27
2019-03-15T12:32:15.118Z,97100.34
2019-03-15T12:34:45.386Z,97097.66
2019-03-15T12:37:15.702Z,97104.34
2019-03-15T12:39:46.037Z,97113.37
2019-03-15T12:42:16.287Z,97110.73
2019-03-15T12:44:46.483Z,97109.92
2019-03-15T12:47:16.694Z,97118.45
2019-03-15T12:49:46.957Z,97113.94
2019-03-15T12:52:20.353Z,97100.32
2019-03-15T12:54:48.996Z,97117.66
2019-03-15T12:57:19.214Z,97125.38
2019-03-15T12:59:49.406Z,97123.78
2019-03-15T13:02:20.426Z,97138.44
2019-03-15T13:04:52.036Z,97130.17
2019-03-15T13:07:22.359Z,97134.97
2019-03-15T13:09:52.678Z,97133.94
2019-03-15T13:12:23.033Z,97141.64
2019-03-15T13:14:53.329Z,97140.03
2019-03-15T13:17:23.648Z,97144.59
2019-03-15T13:19:55.427Z,97140.33
2019-03-15T13:22:26.101Z,97142.21
2019-03-15T13:24:56.319Z,97142.72
2019-03-15T13:27:26.552Z,97154.47
2019-03-15T13:29:56.781Z,97144.34
2019-03-15T13:32:26.985Z,97140.84
2019-03-15T13:34:57.141Z,97144.84
2019-03-15T13:37:27.378Z,97138.98
2019-03-15T13:39:57.755Z,97138.97
2019-03-15T13:42:27.993Z,97136.02
2019-03-15T13:44:58.440Z,97146.97
2019-03-15T13:47:28.693Z,97151.76
2019-03-15T13:49:58.926Z,97148.01
2019-03-15T13:52:29.193Z,97159.21
2019-03-15T13:54:59.545Z,97158.39
2019-03-15T13:57:29.799Z,97153.58
2019-03-15T14:00:00.060Z,97135.70
2019-03-15T14:02:30.486Z,97146.66
2019-03-15T14:05:00.644Z,97160.55
2019-03-15T14:07:30.901Z,97154.66
2019-03-15T14:10:04.016Z,97159.45
2019-03-15T14:12:34.168Z,97145.89
2019-03-15T14:15:04.889Z,97153.38
2019-03-15T14:17:35.242Z,97160.03
2019-03-15T14:20:07.082Z,97163.21
2019-03-15T14:22:37.304Z,97168.56
2019-03-15T14:25:08.980Z,97166.72
2019-03-15T14:27:39.252Z,97176.83
2019-03-15T14:30:11.555Z,97178.16
2019-03-15T14:32:42.025Z,97161.90
2019-03-15T14:35:12.390Z,97175.50
2019-03-15T14:37:42.833Z,97176.56
2019-03-15T14:40:13.629Z,97184.03
2019-03-15T14:42:44.064Z,97157.64
2019-03-15T14:45:14.597Z,97178.44
2019-03-15T14:47:45.322Z,97159.77
2019-03-15T14:50:15.924Z,97157.38
2019-03-15T14:52:46.254Z,97161.09
2019-03-15T14:55:16.725Z,97168.31
2019-03-15T14:57:52.575Z,97171.48
2019-03-15T15:00:19.314Z,97149.11
2019-03-15T15:02:49.766Z,97171.23
2019-03-15T15:05:20.016Z,97179.49
2019-03-15T15:07:50.380Z,97171.25
2019-03-15T15:10:21.006Z,97164.84
2019-03-15T15:12:51.502Z,97172.55
2019-03-15T15:15:21.965Z,97185.34
2019-03-15T15:17:52.512Z,97173.37
2019-03-15T15:20:23.461Z,97170.39
2019-03-15T15:22:53.918Z,97176.00
2019-03-15T15:25:24.421Z,97181.34
2019-03-15T15:28:04.496Z,97187.73
2019-03-15T15:30:26.994Z,97193.34
2019-03-15T15:32:57.281Z,97183.22
2019-03-15T15:35:27.622Z,97192.01
2019-03-15T15:37:58.235Z,97188.81
2019-03-15T15:40:28.864Z,97179.22
2019-03-15T15:42:59.319Z,97185.62
2019-03-15T15:45:30.109Z,97175.23
2019-03-15T15:48:00.441Z,97175.75
2019-03-15T15:50:30.653Z,97171.48
2019-03-15T15:53:00.920Z,97172.83
2019-03-15T15:55:31.512Z,97157.89
2019-03-15T15:58:01.961Z,97171.25
2019-03-15T16:00:32.671Z,97163.77
2019-03-15T16:03:02.926Z,97172.30
2019-03-15T16:05:33.306Z,97189.11
2019-03-15T16:08:03.717Z,97180.03
2019-03-15T16:10:33.945Z,97187.51
2019-03-15T16:13:16.601Z,97182.70
2019-03-15T16:15:36.399Z,97169.90
2019-03-15T16:18:06.690Z,97157.89
2019-03-15T16:20:37.085Z,97165.13
2019-03-15T16:23:07.280Z,97187.23
2019-03-15T16:25:37.482Z,97190.70
2019-03-15T16:28:07.801Z,97195.78
2019-03-15T16:30:38.163Z,97200.33
2019-03-15T16:33:08.592Z,97183.79
2019-03-15T16:35:38.815Z,97199.52
2019-03-15T16:38:09.152Z,97197.92
2019-03-15T16:40:39.457Z,97212.84
2019-03-15T16:43:09.826Z,97206.18
2019-03-15T16:45:40.842Z,97208.85
2019-03-15T16:48:11.219Z,97214.45
2019-03-15T16:50:41.450Z,97216.31
2019-03-15T16:53:11.784Z,97217.92
2019-03-15T16:55:42.117Z,97224.58
2019-03-15T16:58:12.440Z,97226.98
2019-03-15T17:00:42.670Z,97226.18
2019-03-15T17:03:13.145Z,97236.05
2019-03-15T17:05:43.675Z,97234.97
2019-03-15T17:08:13.912Z,97236.58
2019-03-15T17:10:44.134Z,97235.50
2019-03-15T17:13:14.612Z,97231.50
2019-03-15T17:15:44.784Z,97244.84
2019-03-15T17:18:15.182Z,97239.23
2019-03-15T17:20:45.483Z,97242.98
2019-03-15T17:23:15.737Z,97246.44
2019-03-15T17:25:46.103Z,97237.92
2019-03-15T17:28:16.384Z,97236.84
2019-03-15T17:30:46.751Z,97228.58
2019-03-15T17:33:16.968Z,97222.45
2019-03-15T17:35:47.261Z,97230.45
2019-03-15T17:38:17.737Z,97227.52
2019-03-15T17:40:48.032Z,97228.05
2019-03-15T17:43:18.286Z,97227.22
2019-03-15T17:45:48.434Z,97230.71
2019-03-15T17:48:18.844Z,97228.31
2019-03-15T17:50:49.152Z,97236.80
2019-03-15T17:53:19.490Z,97234.13
2019-03-15T17:55:49.900Z,97230.12
2019-03-15T17:58:20.840Z,97230.98
2019-03-15T18:00:51.613Z,97237.33
2019-03-15T18:03:22.504Z,97230.97
2019-03-15T18:05:52.752Z,97226.67
2019-03-15T18:08:23.215Z,97229.87
2019-03-15T18:10:53.597Z,97240.27
2019-03-15T18:13:23.955Z,97244.28
2019-03-15T18:15:54.329Z,97236.01
2019-03-15T18:18:24.795Z,97237.06
2019-03-15T18:20:54.998Z,97239.20
2019-03-15T18:23:25.380Z,97251.72
2019-03-15T18:25:55.795Z,97251.18
2019-03-15T18:28:26.222Z,97259.45
2019-03-15T18:30:59.302Z,97258.39
2019-03-15T18:33:28.756Z,97248.52
2019-03-15T18:35:59.048Z,97244.28
2019-03-15T18:38:29.650Z,97235.73
2019-03-15T18:40:59.858Z,97230.41
2019-03-15T18:43:30.154Z,97243.45
2019-03-15T18:46:00.572Z,97235.75
2019-03-15T18:48:30.997Z,97227.20
2019-03-15T18:51:01.314Z,97250.67
2019-03-15T18:53:31.879Z,97242.96
2019-03-15T18:56:02.310Z,97253.33
2019-03-15T18:58:32.745Z,97257.57
2019-03-15T19:01:03.035Z,97256.50
2019-03-15T19:03:33.356Z,97241.60
2019-03-15T19:06:03.765Z,97248.27
2019-03-15T19:08:35.497Z,97257.31
2019-03-15T19:11:06.035Z,97242.67
2019-03-15T19:13:36.568Z,97251.97
2019-03-15T19:16:19.282Z,97257.31
2019-03-15T19:18:40.016Z,97260.75
2019-03-15T19:21:10.340Z,97273.29
2019-03-15T19:23:40.662Z,97264.51
2019-03-15T19:26:10.938Z,97272.49
2019-03-15T19:28:41.138Z,97275.42
2019-03-15T19:31:11.377Z,97280.23
2019-03-15T19:33:41.574Z,97278.09
2019-03-15T19:36:11.894Z,97283.95
2019-03-15T19:38:43.107Z,97280.75
2019-03-15T19:41:13.630Z,97284.49
2019-03-15T19:43:43.949Z,97281.05
2019-03-15T19:46:14.350Z,97287.17
2019-03-15T19:48:44.821Z,97291.98
2019-03-15T19:51:15.222Z,97293.31
2019-03-15T19:53:45.606Z,97283.17
2019-03-15T19:56:15.896Z,97285.56
2019-03-15T19:58:46.360Z,97291.98
2019-03-15T20:01:16.926Z,97299.98
2019-03-15T20:03:47.235Z,97289.30
2019-03-15T20:06:17.698Z,97298.64
2019-03-15T20:08:48.020Z,97300.22
2019-03-15T20:11:18.278Z,97295.66
2019-03-15T20:13:48.553Z,97308.98
2019-03-15T20:16:18.942Z,97294.83
2019-03-15T20:18:49.201Z,97306.02
2019-03-15T20:21:19.359Z,97301.50
2019-03-15T20:23:49.533Z,97308.96
2019-03-15T20:26:19.764Z,97311.60
2019-03-15T20:28:49.957Z,97318.52
2019-03-15T20:31:20.354Z,97313.13
2019-03-15T20:33:50.537Z,97310.47
2019-03-15T20:36:20.757Z,97319.27
2019-03-15T20:38:51.056Z,97334.72
2019-03-15T20:41:21.361Z,97320.63
2019-03-15T20:43:51.623Z,97317.92
2019-03-15T20:46:34.903Z,97325.64
2019-03-15T20:48:53.994Z,97337.34
2019-03-15T20:51:24.524Z,97322.42
2019-03-15T20:53:54.772Z,97335.98
2019-03-15T20:56:25.166Z,97330.94
2019-03-15T20:58:55.383Z,97335.48
2019-03-15T21:03:31.032Z,97337.56
2019-03-15T21:06:01.658Z,97349.02
2019-03-15T21:08:31.918Z,97343.13
2019-03-15T21:11:02.103Z,97342.08
2019-03-15T21:13:33.906Z,97346.04
2019-03-15T21:16:04.915Z,97349.50
2019-03-15T21:18:35.098Z,97346.84
2019-03-15T21:21:08.474Z,97347.13
2019-03-15T21:23:38.739Z,97345.80
2019-03-15T21:26:08.992Z,97354.03
2019-03-15T21:28:39.233Z,97362.34
2019-03-15T21:31:09.586Z,97362.33
2019-03-15T21:33:39.812Z,97359.70
2019-03-15T21:36:10.075Z,97369.31
2019-03-15T21:38:48.137Z,97361.08
2019-03-15T21:41:12.441Z,97370.95
2019-03-15T21:43:42.989Z,97363.70
2019-03-15T21:46:13.245Z,97365.59
2019-03-15T21:48:43.589Z,97372.78
2019-03-15T21:51:13.931Z,97368.78
2019-03-15T21:53:44.270Z,97375.19
2019-03-15T21:56:14.631Z,97358.86
2019-03-15T21:58:44.839Z,97368.26
2019-03-15T22:01:15.255Z,97374.63
2019-03-15T22:03:45.591Z,97375.65
2019-03-15T22:06:16.051Z,97394.00
2019-03-15T22:08:46.410Z,97396.67
2019-03-15T22:11:21.429Z,97385.77
2019-03-15T22:13:48.643Z,97391.63
2019-03-15T22:16:18.928Z,97387.84
2019-03-15T22:18:49.293Z,97389.48
2019-03-15T22:21:19.621Z,97393.16
2019-03-15T22:23:49.793Z,97398.25
2019-03-15T22:26:20.166Z,97395.34
2019-03-15T22:28:50.380Z,97414.75
2019-03-15T22:31:20.717Z,97397.75
2019-03-15T22:33:50.980Z,97401.19
2019-03-15T22:36:22.214Z,97390.26
2019-03-15T22:38:52.379Z,97400.10
2019-03-15T22:41:22.657Z,97399.89
2019-03-15T22:43:52.738Z,97402.55
2019-03-15T22:46:23.878Z,97398.84
2019-03-15T22:48:54.196Z,97399.61
2019-03-15T22:51:24.345Z,97399.58
2019-03-15T22:53:54.609Z,97410.42
2019-03-15T22:56:24.948Z,97406.09
2019-03-15T22:58:57.522Z,97412.98
2019-03-15T23:01:30.551Z,97412.74
2019-03-15T23:04:00.033Z,97412.69
2019-03-15T23:06:30.301Z,97418.48
2019-03-15T23:09:00.617Z,97418.25
2019-03-15T23:11:30.863Z,97423.63
2019-03-15T23:14:01.133Z,97440.34
2019-03-15T23:16:31.492Z,97442.73
2019-03-15T23:19:01.772Z,97453.42
2019-03-15T23:21:31.967Z,97447.30
2019-03-15T23:24:02.164Z,97438.44
2019-03-15T23:26:32.446Z,97436.03
2019-03-15T23:29:05.918Z,97451.77
2019-03-15T23:31:43.689Z,97452.55
2019-03-15T23:34:08.311Z,97430.75
2019-03-15T23:36:39.839Z,97437.91
2019-03-15T23:39:10.169Z,97436.25
2019-03-15T23:41:40.337Z,97435.44
2019-03-15T23:44:10.613Z,97432.26
2019-03-15T23:46:40.917Z,97443.23
2019-03-15T23:49:11.093Z,97444.24
2019-03-15T23:51:41.427Z,97450.60
2019-03-15T23:54:11.669Z,97450.14
2019-03-15T23:56:42.005Z,97455.22
2019-03-15T23:59:12.229Z,97444.82
